Time;durP1;ratioP1;P1;durP2;ratioP2;P2;SDS_P1;SDS_P2;PMS_P1;PMS_P2;Temp;Humidity;BMP_temperature;BMP_pressure;BME280_temperature;BME280_humidity;BME280_pressure;Samples;Min_cycle;Max_cycle;Signal;HPM_P1;HPM_P2
2023/07/28 00:00:08;;;;;;;2.17;1.15;;;;;;;16.73;91.51;97743.47;5029762;28;20036;-72
2023/07/28 00:02:33;;;;;;;1.95;1.10;;;;;;;16.87;89.48;97749.50;5026804;28;20033;-72
2023/07/28 00:04:59;;;;;;;1.67;0.60;;;;;;;16.92;89.36;97752.84;5030711;28;20033;-72
2023/07/28 00:07:24;;;;;;;0.85;0.82;;;;;;;16.76;90.68;97743.63;5022742;28;20095;-72
2023/07/28 00:09:49;;;;;;;1.65;0.90;;;;;;;16.85;90.20;97757.09;5027707;28;20130;-72
2023/07/28 00:12:15;;;;;;;3.55;1.38;;;;;;;16.73;90.83;97749.63;5028108;28;20441;-72
2023/07/28 00:14:40;;;;;;;5.40;1.23;;;;;;;16.73;92.13;97746.16;5029418;28;20037;-73
2023/07/28 00:17:05;;;;;;;0.75;0.60;;;;;;;16.77;90.61;97761.38;5011499;28;20037;-73
2023/07/28 00:19:31;;;;;;;3.63;1.13;;;;;;;16.69;91.11;97747.88;5024182;28;20144;-73
2023/07/28 00:21:56;;;;;;;1.70;0.70;;;;;;;16.80;89.97;97738.38;5030371;28;20033;-72
2023/07/28 00:24:22;;;;;;;3.78;1.05;;;;;;;16.78;90.47;97733.31;5027204;28;20481;-73
2023/07/28 00:26:47;;;;;;;1.88;1.00;;;;;;;16.78;90.15;97724.44;5030012;28;20025;-72
2023/07/28 00:29:13;;;;;;;1.95;0.68;;;;;;;16.86;89.75;97721.72;5031108;28;20033;-72
2023/07/28 00:31:38;;;;;;;2.28;1.00;;;;;;;16.84;89.64;97728.56;4996940;28;20026;-72
2023/07/28 00:34:04;;;;;;;2.70;1.05;;;;;;;16.82;90.42;97726.19;5031278;28;20087;-71
2023/07/28 00:36:30;;;;;;;4.30;1.10;;;;;;;16.74;90.75;97718.88;5027050;28;20049;-73
2023/07/28 00:38:56;;;;;;;5.50;1.35;;;;;;;16.71;90.69;97729.50;5030012;28;20076;-72
2023/07/28 00:41:21;;;;;;;1.02;0.80;;;;;;;16.71;90.48;97730.28;5028948;28;20053;-72
2023/07/28 00:43:46;;;;;;;1.55;0.80;;;;;;;16.72;90.62;97723.78;5030156;28;20428;-73
2023/07/28 00:46:13;;;;;;;5.68;1.10;;;;;;;16.73;90.33;97725.38;5033577;28;20025;-72
2023/07/28 00:48:39;;;;;;;3.15;1.30;;;;;;;16.68;90.38;97719.34;5075302;23;20048;-83
2023/07/28 00:51:06;;;;;;;5.53;1.27;;;;;;;16.74;90.56;97735.06;5063205;28;20122;-82
2023/07/28 00:53:32;;;;;;;1.45;0.90;;;;;;;16.75;90.67;97730.47;5044176;28;20035;-83
2023/07/28 00:55:57;;;;;;;0.95;0.88;;;;;;;16.63;90.59;97714.91;5079738;28;20384;-83
2023/07/28 00:58:24;;;;;;;3.10;1.10;;;;;;;16.62;90.68;97721.38;5026969;28;20429;-82
2023/07/28 01:00:49;;;;;;;3.65;1.20;;;;;;;16.60;90.87;97722.84;5061132;28;20028;-82
2023/07/28 01:03:18;;;;;;;1.92;0.80;;;;;;;16.75;90.43;97728.56;5060664;28;20033;-82
2023/07/28 01:06:07;;;;;;;2.40;1.13;;;;;;;16.64;90.35;97729.19;5078747;28;20115;-82
2023/07/28 01:08:38;;;;;;;4.45;1.08;;;;;;;16.75;89.93;97725.88;5057961;28;20396;-82
2023/07/28 01:11:03;;;;;;;1.42;1.33;;;;;;;16.74;90.40;97716.19;5062199;28;20024;-82
2023/07/28 01:13:29;;;;;;;3.65;1.00;;;;;;;16.75;89.62;97719.69;5030773;28;20027;-82
2023/07/28 01:15:54;;;;;;;1.55;1.10;;;;;;;16.68;91.29;97730.13;5061216;28;20053;-82
2023/07/28 01:18:20;;;;;;;3.35;1.45;;;;;;;16.69;90.37;97724.41;5075830;28;20025;-82
2023/07/28 01:20:47;;;;;;;2.33;1.42;;;;;;;16.70;90.58;97727.91;5047930;28;20059;-82
2023/07/28 01:23:23;;;;;;;3.40;1.33;;;;;;;16.74;90.63;97729.66;5048308;28;20400;-81
2023/07/28 01:26:07;;;;;;;2.40;1.20;;;;;;;16.76;90.31;97729.34;5039083;28;20029;-82
2023/07/28 01:28:34;;;;;;;1.92;1.00;;;;;;;16.77;90.74;97723.66;5074133;28;20119;-82
2023/07/28 01:31:02;;;;;;;1.05;1.05;;;;;;;16.70;90.95;97714.44;5082651;28;20028;-82
2023/07/28 01:33:28;;;;;;;2.55;1.23;;;;;;;16.74;90.31;97732.34;5026621;28;20044;-82
2023/07/28 01:35:54;;;;;;;2.00;1.05;;;;;;;16.81;90.32;97723.81;5059464;28;20028;-82
2023/07/28 01:38:19;;;;;;;1.45;1.35;;;;;;;16.62;90.47;97699.84;5060197;28;20050;-82
2023/07/28 01:40:44;;;;;;;1.38;1.25;;;;;;;16.73;91.03;97728.06;5062899;28;20024;-83
2023/07/28 01:43:10;;;;;;;2.15;1.40;;;;;;;16.71;90.73;97724.13;5065331;28;20510;-82
2023/07/28 01:45:35;;;;;;;6.45;1.17;;;;;;;16.76;90.88;97732.84;5070277;28;20023;-82
2023/07/28 01:48:01;;;;;;;3.72;1.08;;;;;;;16.73;90.14;97716.50;5050810;28;20037;-83
2023/07/28 01:50:26;;;;;;;5.28;1.08;;;;;;;16.68;90.21;97716.66;5049877;28;20028;-82
2023/07/28 01:52:51;;;;;;;2.10;1.35;;;;;;;16.79;90.17;97726.81;5032923;28;20697;-82
2023/07/28 01:55:17;;;;;;;1.10;1.00;;;;;;;16.60;91.02;97718.22;5047085;28;20033;-82
2023/07/28 01:57:53;;;;;;;2.25;1.15;;;;;;;16.53;90.93;97703.63;5065937;28;20054;-82
2023/07/28 02:00:19;;;;;;;2.97;1.70;;;;;;;16.62;90.45;97709.84;5066335;28;20104;-82
2023/07/28 02:02:44;;;;;;;1.15;0.77;;;;;;;16.72;90.86;97723.00;5043755;28;20052;-82
2023/07/28 02:05:10;;;;;;;1.80;1.52;;;;;;;16.72;90.39;97731.09;5050274;28;20571;-82
2023/07/28 02:07:35;;;;;;;2.33;1.10;;;;;;;16.72;90.48;97731.88;5065523;28;20039;-82
2023/07/28 02:10:00;;;;;;;2.17;1.23;;;;;;;16.67;90.17;97731.22;5068972;28;20111;-82
2023/07/28 02:12:26;;;;;;;4.20;1.05;;;;;;;16.67;90.23;97725.84;5066256;28;20051;-82
2023/07/28 02:14:51;;;;;;;0.93;0.88;;;;;;;16.68;90.58;97732.81;5043315;28;20567;-82
2023/07/28 02:17:16;;;;;;;2.80;1.00;;;;;;;16.58;90.96;97731.22;5046325;28;20056;-82
2023/07/28 02:19:42;;;;;;;1.98;1.45;;;;;;;16.47;90.87;97730.69;5062791;28;20024;-82
2023/07/28 02:22:07;;;;;;;0.80;0.80;;;;;;;16.54;91.56;97740.22;5045093;28;20033;-82
2023/07/28 02:24:32;;;;;;;1.65;0.90;;;;;;;16.59;91.52;97729.31;5059393;28;20036;-82
2023/07/28 02:26:58;;;;;;;2.65;1.13;;;;;;;16.66;90.37;97735.84;5047856;28;20031;-83
2023/07/28 02:29:23;;;;;;;3.10;1.17;;;;;;;16.76;89.90;97732.03;5060661;28;20040;-82
2023/07/28 02:31:48;;;;;;;2.38;1.20;;;;;;;16.54;90.36;97716.78;5026985;28;20028;-82
2023/07/28 02:34:14;;;;;;;1.33;1.02;;;;;;;16.67;90.07;97729.31;5050431;28;20068;-82
2023/07/28 02:36:39;;;;;;;3.45;1.17;;;;;;;16.59;90.89;97745.47;5028879;28;20035;-82
2023/07/28 02:39:04;;;;;;;3.03;1.30;;;;;;;16.56;90.64;97746.09;5056249;28;20032;-83
2023/07/28 02:41:30;;;;;;;4.70;1.10;;;;;;;16.49;90.89;97733.06;5081097;28;20032;-82
2023/07/28 02:43:55;;;;;;;3.55;1.55;;;;;;;16.64;90.35;97742.66;5046818;28;20044;-83
2023/07/28 02:46:20;;;;;;;2.85;1.00;;;;;;;16.67;90.17;97740.09;5085550;28;20036;-82
2023/07/28 02:48:46;;;;;;;1.17;1.08;;;;;;;16.63;89.85;97738.34;5037240;28;20025;-83
2023/07/28 02:51:11;;;;;;;1.92;1.10;;;;;;;16.74;89.45;97745.84;5037930;28;20161;-83
2023/07/28 02:53:36;;;;;;;1.58;1.00;;;;;;;16.75;89.62;97736.66;5076907;28;20028;-83
2023/07/28 02:56:02;;;;;;;1.60;0.90;;;;;;;16.66;89.46;97722.38;5076869;28;20518;-83
2023/07/28 02:58:27;;;;;;;1.58;1.48;;;;;;;16.63;90.43;97741.03;5032043;28;20131;-83
2023/07/28 03:00:53;;;;;;;1.08;0.98;;;;;;;16.53;90.18;97725.19;5073374;28;20122;-83
2023/07/28 03:03:18;;;;;;;2.50;1.00;;;;;;;16.48;90.32;97721.50;5058167;28;20025;-83
2023/07/28 03:05:44;;;;;;;2.78;1.40;;;;;;;16.57;90.58;97729.63;5037992;28;20021;-83
2023/07/28 03:08:09;;;;;;;1.60;1.50;;;;;;;16.68;90.17;97746.28;5074347;28;20036;-83
2023/07/28 03:10:35;;;;;;;4.97;1.30;;;;;;;16.68;90.03;97755.19;5048318;28;20119;-83
2023/07/28 03:13:00;;;;;;;4.65;1.27;;;;;;;16.62;90.13;97748.31;5049961;28;20068;-83
2023/07/28 03:15:25;;;;;;;2.65;1.30;;;;;;;16.66;90.02;97757.41;5033273;28;20028;-82
2023/07/28 03:17:51;;;;;;;1.20;1.10;;;;;;;16.72;89.98;97766.13;5029809;28;20025;-83
2023/07/28 03:20:16;;;;;;;1.52;1.42;;;;;;;16.56;90.19;97743.41;5063920;28;20024;-82
2023/07/28 03:22:42;;;;;;;4.30;1.52;;;;;;;16.60;90.84;97760.56;5072204;28;20036;-82
2023/07/28 03:25:08;;;;;;;1.33;1.23;;;;;;;16.64;90.52;97766.91;5061223;28;20044;-82
2023/07/28 03:27:33;;;;;;;2.53;1.15;;;;;;;16.52;90.28;97756.72;5071650;28;20098;-82
2023/07/28 03:29:59;;;;;;;1.10;1.00;;;;;;;16.55;90.90;97768.78;5060703;28;20829;-82
2023/07/28 03:32:25;;;;;;;1.42;1.20;;;;;;;16.54;91.45;97781.44;5066449;28;20036;-82
2023/07/28 03:34:50;;;;;;;1.67;1.40;;;;;;;16.57;90.47;97785.41;5063654;28;20041;-82
2023/07/28 03:37:16;;;;;;;1.60;1.50;;;;;;;16.42;90.78;97765.84;5040403;28;20054;-83
2023/07/28 03:39:41;;;;;;;1.38;1.27;;;;;;;16.53;91.31;97787.16;5023883;28;20035;-82
2023/07/28 03:42:07;;;;;;;2.25;1.50;;;;;;;16.59;89.64;97783.19;5038473;28;20412;-82
2023/07/28 03:44:33;;;;;;;1.52;1.35;;;;;;;16.63;89.82;97784.97;5043118;28;20031;-81
2023/07/28 03:46:59;;;;;;;1.35;1.23;;;;;;;16.70;90.11;97779.09;5058462;28;20028;-82
2023/07/28 03:49:24;;;;;;;2.13;1.30;;;;;;;16.62;90.05;97785.28;5074824;28;20025;-82
2023/07/28 03:51:50;;;;;;;1.70;1.20;;;;;;;16.57;90.50;97783.53;5058030;28;20035;-82
2023/07/28 03:54:15;;;;;;;2.15;1.17;;;;;;;16.63;90.44;97790.34;5040862;28;20369;-82
2023/07/28 03:56:40;;;;;;;1.33;0.93;;;;;;;16.78;89.57;97786.41;5060276;28;20036;-82
2023/07/28 03:59:06;;;;;;;3.38;1.40;;;;;;;16.73;89.42;97791.97;5042701;28;20025;-82
2023/07/28 04:01:31;;;;;;;1.33;1.23;;;;;;;16.54;90.31;97780.63;5069885;28;20032;-82
2023/07/28 04:03:57;;;;;;;1.40;1.30;;;;;;;16.57;90.40;97788.91;5075838;28;20033;-82
2023/07/28 04:06:43;;;;;;;1.55;1.00;;;;;;;16.46;90.35;97780.28;5072696;28;20025;-81
2023/07/28 04:09:09;;;;;;;;;;;;;;;16.59;90.14;97791.28;5057300;28;20472;-82
2023/07/28 04:11:35;;;;;;;1.35;1.20;;;;;;;16.53;89.92;97763.72;5080246;28;19916;-82
2023/07/28 04:14:00;;;;;;;2.33;1.90;;;;;;;16.51;90.58;97790.16;5065616;28;20146;-82
2023/07/28 04:16:26;;;;;;;3.47;1.40;;;;;;;16.46;90.31;97769.53;5065013;28;20071;-82
2023/07/28 04:18:51;;;;;;;1.60;1.38;;;;;;;16.61;89.87;97789.06;5077950;28;20103;-82
2023/07/28 04:21:17;;;;;;;2.78;1.17;;;;;;;16.44;90.34;97769.03;5058072;28;20048;-82
2023/07/28 04:23:43;;;;;;;2.60;1.10;;;;;;;16.43;90.38;97780.91;5064558;28;20503;-82
2023/07/28 04:26:08;;;;;;;2.88;1.40;;;;;;;16.55;90.21;97774.16;5037424;28;20466;-82
2023/07/28 04:28:34;;;;;;;1.83;1.35;;;;;;;16.61;90.25;97776.41;5051361;28;20082;-82
2023/07/28 04:30:59;;;;;;;1.83;1.25;;;;;;;16.65;89.83;97781.94;5042734;28;20029;-82
2023/07/28 04:33:24;;;;;;;2.00;1.02;;;;;;;16.59;90.07;97773.22;5064315;28;20033;-82
2023/07/28 04:35:50;;;;;;;3.40;1.27;;;;;;;16.52;90.06;97772.06;5056692;28;20054;-81
2023/07/28 04:38:17;;;;;;;3.00;1.17;;;;;;;16.64;90.06;97788.44;5045642;28;20124;-82
2023/07/28 04:40:42;;;;;;;2.90;1.30;;;;;;;16.60;90.00;97782.09;5062032;28;20039;-81
2023/07/28 04:43:07;;;;;;;2.67;1.00;;;;;;;16.52;90.01;97785.53;5055552;28;20033;-82
2023/07/28 04:45:33;;;;;;;3.05;0.93;;;;;;;16.70;90.22;97803.34;5062286;28;20036;-82
2023/07/28 04:47:58;;;;;;;0.77;0.77;;;;;;;16.56;90.44;97795.38;5049843;28;20034;-82
2023/07/28 04:50:24;;;;;;;1.85;0.73;;;;;;;16.41;91.85;97795.78;5029078;28;20040;-82
2023/07/28 04:52:49;;;;;;;1.98;1.05;;;;;;;16.40;92.06;97800.38;5052175;28;20074;-82
2023/07/28 04:55:14;;;;;;;1.80;0.68;;;;;;;16.58;90.66;97792.41;5025370;28;20057;-82
2023/07/28 04:57:40;;;;;;;1.42;0.57;;;;;;;16.75;89.31;97795.94;5039430;28;20052;-82
2023/07/28 05:00:06;;;;;;;1.10;0.73;;;;;;;16.78;89.31;97805.28;5075849;28;20060;-82
2023/07/28 05:02:31;;;;;;;2.08;0.60;;;;;;;16.67;90.44;97807.47;5038908;28;20037;-82
2023/07/28 05:04:57;;;;;;;6.65;1.23;;;;;;;16.79;89.83;97806.88;5063188;28;20041;-83
2023/07/28 05:07:22;;;;;;;2.95;0.77;;;;;;;16.82;89.25;97801.63;5056212;28;20361;-82
2023/07/28 05:09:47;;;;;;;0.80;0.80;;;;;;;16.82;89.82;97809.72;5048060;28;20029;-82
2023/07/28 05:12:13;;;;;;;0.95;0.90;;;;;;;16.76;89.80;97810.19;5047076;28;20036;-82
2023/07/28 05:14:38;;;;;;;1.30;0.73;;;;;;;16.65;89.96;97790.81;5033494;28;20024;-82
2023/07/28 05:17:04;;;;;;;1.00;0.90;;;;;;;16.75;89.74;97795.13;5058865;28;20040;-82
2023/07/28 05:19:29;;;;;;;0.93;0.68;;;;;;;16.84;89.05;97804.03;5057337;28;20024;-82
2023/07/28 05:21:54;;;;;;;0.85;0.85;;;;;;;16.90;89.65;97814.38;5047947;28;20028;-82
2023/07/28 05:24:20;;;;;;;1.77;1.00;;;;;;;16.90;89.64;97813.56;5046687;28;20060;-82
2023/07/28 05:26:45;;;;;;;1.90;0.93;;;;;;;16.78;89.47;97783.72;5054635;28;20065;-82
2023/07/28 05:29:11;;;;;;;0.63;0.63;;;;;;;16.74;89.85;97797.03;5029124;28;20167;-82
2023/07/28 05:31:36;;;;;;;1.85;0.88;;;;;;;16.94;89.47;97820.72;5022741;28;20599;-82
2023/07/28 05:34:01;;;;;;;1.08;0.90;;;;;;;16.81;89.61;97808.16;5064930;28;20032;-83
2023/07/28 05:36:28;;;;;;;1.92;1.00;;;;;;;16.89;89.01;97798.47;5022398;28;20086;-83
2023/07/28 05:38:56;;;;;;;2.00;1.60;;;;;;;16.83;89.56;97805.13;5042266;28;20035;-82
2023/07/28 05:41:21;;;;;;;2.03;1.00;;;;;;;16.88;90.21;97815.78;5050348;28;20025;-83
2023/07/28 05:43:47;;;;;;;0.95;0.70;;;;;;;16.84;90.40;97820.22;5059762;28;20403;-83
2023/07/28 05:46:12;;;;;;;1.23;1.13;;;;;;;16.74;90.46;97821.28;5042834;28;20101;-83
2023/07/28 05:48:37;;;;;;;1.75;1.30;;;;;;;16.92;88.56;97825.63;5057908;28;20086;-83
2023/07/28 05:51:03;;;;;;;2.53;0.95;;;;;;;16.99;88.87;97838.63;5028484;28;20052;-82
2023/07/28 05:53:28;;;;;;;3.42;0.90;;;;;;;16.95;89.05;97829.59;5038242;28;20055;-82
2023/07/28 05:55:53;;;;;;;3.70;1.17;;;;;;;16.99;88.92;97844.81;5029079;28;20036;-82
2023/07/28 05:58:19;;;;;;;0.63;0.63;;;;;;;16.96;89.37;97844.66;5061539;28;20540;-83
2023/07/28 06:00:44;;;;;;;2.40;1.17;;;;;;;17.03;89.42;97847.69;5044772;28;20512;-82
2023/07/28 06:03:11;;;;;;;1.40;1.20;;;;;;;16.85;90.72;97841.44;5059232;28;20029;-82
2023/07/28 06:05:39;;;;;;;1.38;1.05;;;;;;;17.05;89.09;97848.16;5030047;28;20090;-82
2023/07/28 06:08:04;;;;;;;1.38;1.25;;;;;;;17.00;88.71;97829.44;5046242;28;20050;-82
2023/07/28 06:10:29;;;;;;;1.80;1.20;;;;;;;17.02;89.14;97849.56;5061809;28;20032;-82
2023/07/28 06:12:55;;;;;;;2.00;1.10;;;;;;;17.01;89.70;97860.69;5059195;28;20093;-83
2023/07/28 06:15:20;;;;;;;1.30;0.93;;;;;;;17.01;90.53;97858.00;5073975;28;20038;-82
2023/07/28 06:17:45;;;;;;;1.67;1.15;;;;;;;16.99;90.11;97852.88;5035542;28;20032;-82
2023/07/28 06:20:11;;;;;;;1.75;1.33;;;;;;;16.92;91.70;97857.97;5056092;28;20115;-81
2023/07/28 06:22:36;;;;;;;4.45;1.55;;;;;;;17.00;90.87;97867.16;5074310;28;20460;-82
2023/07/28 06:25:02;;;;;;;1.30;1.10;;;;;;;17.02;91.08;97867.66;5081200;28;20460;-82
2023/07/28 06:27:28;;;;;;;5.45;1.55;;;;;;;17.05;89.86;97856.25;5068151;28;20059;-83
2023/07/28 06:29:53;;;;;;;5.03;1.75;;;;;;;17.09;89.92;97871.47;5037482;28;20046;-82
2023/07/28 06:32:20;;;;;;;3.50;1.35;;;;;;;17.18;89.84;97860.72;5051027;28;20385;-82
2023/07/28 06:34:45;;;;;;;4.45;1.27;;;;;;;17.19;89.16;97864.97;5016120;28;20037;-82
2023/07/28 06:37:11;;;;;;;4.63;1.40;;;;;;;17.21;89.22;97860.09;5055465;28;20082;-82
2023/07/28 06:39:36;;;;;;;2.20;1.27;;;;;;;17.30;89.53;97862.81;5016174;28;20036;-82
2023/07/28 06:42:02;;;;;;;6.85;1.40;;;;;;;17.34;89.70;97866.44;5074497;28;20078;-82
2023/07/28 06:44:27;;;;;;;3.10;0.93;;;;;;;17.35;89.59;97849.94;5036780;28;20040;-82
2023/07/28 06:46:53;;;;;;;2.17;1.27;;;;;;;17.27;90.09;97848.03;5075250;28;20043;-82
2023/07/28 06:49:18;;;;;;;3.05;1.30;;;;;;;17.44;88.79;97868.81;5044646;28;20036;-82
2023/07/28 06:51:43;;;;;;;1.15;1.05;;;;;;;17.41;89.66;97866.78;5074098;28;20074;-83
2023/07/28 06:54:12;;;;;;;1.70;1.25;;;;;;;17.52;89.67;97879.66;5022349;28;20028;-82
2023/07/28 06:56:38;;;;;;;5.82;0.90;;;;;;;17.51;90.31;97880.78;5046046;28;20086;-82
2023/07/28 06:59:03;;;;;;;1.92;1.00;;;;;;;17.58;90.38;97880.31;5055234;28;20053;-82
2023/07/28 07:01:29;;;;;;;8.52;3.50;;;;;;;17.53;90.50;97881.25;5050367;28;20379;-82
2023/07/28 07:03:55;;;;;;;3.17;1.15;;;;;;;17.61;90.22;97890.44;5077336;28;20028;-82
2023/07/28 07:06:21;;;;;;;1.88;1.30;;;;;;;17.56;90.31;97871.75;5060524;28;20525;-82
2023/07/28 07:08:46;;;;;;;2.25;1.10;;;;;;;17.61;89.41;97877.75;5028815;28;20033;-82
2023/07/28 07:11:11;;;;;;;2.05;0.70;;;;;;;17.69;89.29;97879.66;5018424;28;20097;-82
2023/07/28 07:13:37;;;;;;;1.45;1.08;;;;;;;17.72;90.42;97892.53;5032291;28;20093;-82
2023/07/28 07:16:02;;;;;;;2.25;1.13;;;;;;;17.67;90.34;97881.09;5045003;28;20254;-82
2023/07/28 07:18:28;;;;;;;4.07;1.13;;;;;;;17.87;89.13;97885.84;5056302;28;20032;-82
2023/07/28 07:20:53;;;;;;;1.45;1.25;;;;;;;17.67;90.02;97873.78;5037999;28;20036;-82
2023/07/28 07:23:18;;;;;;;3.03;1.48;;;;;;;17.93;89.19;97898.88;5052258;28;20117;-82
2023/07/28 07:25:44;;;;;;;2.28;1.20;;;;;;;17.94;89.26;97896.97;5063926;28;20043;-82
2023/07/28 07:28:09;;;;;;;1.88;1.10;;;;;;;17.87;88.83;97883.13;5043726;28;20056;-82
2023/07/28 07:30:34;;;;;;;2.70;1.15;;;;;;;17.84;89.55;97884.56;5025612;28;20157;-81
2023/07/28 07:33:00;;;;;;;9.85;1.55;;;;;;;17.92;88.89;97894.59;5069899;28;20029;-82
2023/07/28 07:35:25;;;;;;;2.75;1.02;;;;;;;18.06;88.25;97909.81;5037149;28;20438;-82
2023/07/28 07:37:51;;;;;;;4.53;1.63;;;;;;;18.03;87.90;97892.34;5048942;28;20037;-82
2023/07/28 07:40:16;;;;;;;2.88;1.60;;;;;;;17.98;88.49;97889.81;5018958;28;20024;-81
2023/07/28 07:42:48;;;;;;;5.03;1.05;;;;;;;18.11;88.24;97906.97;5050264;28;20055;-82
2023/07/28 07:45:14;;;;;;;1.95;1.00;;;;;;;18.06;88.03;97909.81;5051640;28;20020;-82
2023/07/28 07:47:40;;;;;;;4.20;1.52;;;;;;;18.06;88.85;97920.63;5068618;28;20033;-82
2023/07/28 07:50:09;;;;;;;1.50;1.02;;;;;;;18.10;87.67;97913.47;5079988;28;20061;-82
2023/07/28 07:52:36;;;;;;;1.58;1.33;;;;;;;18.16;87.97;97914.88;5058037;28;20040;-82
2023/07/28 07:55:02;;;;;;;4.07;1.30;;;;;;;18.12;87.68;97917.44;5058218;28;20040;-82
2023/07/28 07:57:28;;;;;;;6.65;1.45;;;;;;;18.19;87.81;97925.06;5037250;28;20442;-82
2023/07/28 07:59:53;;;;;;;2.40;1.35;;;;;;;18.13;88.22;97907.44;5047450;28;20024;-82
2023/07/28 08:02:18;;;;;;;3.70;1.50;;;;;;;18.27;88.21;97925.03;5067971;28;20028;-82
2023/07/28 08:04:44;;;;;;;1.40;1.10;;;;;;;18.33;87.49;97915.66;5068620;28;20040;-82
2023/07/28 08:07:16;;;;;;;2.30;1.65;;;;;;;18.39;87.81;97922.47;5059419;27;20387;-74
2023/07/28 08:09:41;;;;;;;1.75;1.10;;;;;;;18.46;86.73;97930.91;5064457;28;20039;-74
2023/07/28 08:12:08;;;;;;;2.83;1.63;;;;;;;18.55;87.11;97930.88;5053342;28;20118;-74
2023/07/28 08:14:34;;;;;;;3.00;1.85;;;;;;;18.55;86.72;97933.59;5052234;28;20045;-74
2023/07/28 08:16:59;;;;;;;7.05;1.77;;;;;;;18.56;86.34;97932.50;5055851;28;20112;-74
2023/07/28 08:19:24;;;;;;;1.38;1.27;;;;;;;18.61;87.16;97929.59;5059445;28;20044;-73
2023/07/28 08:22:06;;;;;;;3.30;1.70;;;;;;;18.73;85.39;97931.63;5061502;28;20075;-73
2023/07/28 08:24:33;;;;;;;2.55;1.17;;;;;;;18.77;85.71;97944.19;5050611;28;20040;-74
2023/07/28 08:27:01;;;;;;;2.97;1.20;;;;;;;18.89;85.18;97938.91;5060115;28;20029;-74
2023/07/28 08:29:26;;;;;;;1.40;1.27;;;;;;;18.87;84.91;97943.81;5056376;28;20120;-74
2023/07/28 08:31:52;;;;;;;1.58;1.48;;;;;;;19.01;86.94;97935.50;5060628;28;20124;-73
2023/07/28 08:34:17;;;;;;;5.03;1.65;;;;;;;19.07;85.45;97945.00;5057499;28;20029;-73
2023/07/28 08:36:43;;;;;;;3.05;1.85;;;;;;;19.22;83.97;97942.56;5058657;28;20389;-73
2023/07/28 08:39:09;;;;;;;4.75;1.80;;;;;;;19.30;84.51;97944.44;5058797;28;20178;-74
2023/07/28 08:41:35;;;;;;;2.47;1.95;;;;;;;19.35;84.47;97949.69;5067336;28;20028;-74
2023/07/28 08:44:00;;;;;;;2.50;1.48;;;;;;;19.49;83.39;97951.34;5067926;28;20039;-73
2023/07/28 08:46:26;;;;;;;2.03;1.20;;;;;;;19.56;84.85;97957.03;5058532;28;20405;-74
2023/07/28 08:48:52;;;;;;;4.65;1.38;;;;;;;19.69;82.85;97956.81;5063453;28;20037;-73
2023/07/28 08:51:17;;;;;;;6.63;1.58;;;;;;;19.74;82.88;97959.31;5065734;28;20082;-73
2023/07/28 08:53:42;;;;;;;1.15;1.08;;;;;;;19.83;82.55;97954.63;5064793;28;20111;-74
2023/07/28 08:56:09;;;;;;;4.25;1.30;;;;;;;19.90;83.60;97965.72;5059784;28;20071;-73
2023/07/28 08:58:34;;;;;;;5.07;1.17;;;;;;;20.07;81.94;97971.00;5064904;28;20523;-73
2023/07/28 09:01:02;;;;;;;5.90;1.50;;;;;;;20.11;81.30;97971.94;5065658;28;20119;-72
2023/07/28 09:03:29;;;;;;;1.20;1.10;;;;;;;20.17;80.92;97972.53;5059625;28;20048;-73
2023/07/28 09:06:02;;;;;;;7.03;1.83;;;;;;;20.21;80.89;97978.91;5065000;28;20032;-73
2023/07/28 09:08:30;;;;;;;4.32;1.60;;;;;;;20.22;80.49;97979.69;5064028;28;20044;-74
2023/07/28 09:10:55;;;;;;;1.38;1.27;;;;;;;20.22;81.05;97980.50;5055323;28;20024;-73
2023/07/28 09:13:20;;;;;;;5.13;1.85;;;;;;;20.19;81.19;97983.81;5050569;28;20393;-73
2023/07/28 09:15:46;;;;;;;3.78;0.95;;;;;;;20.23;80.61;97992.91;5062450;28;20112;-73
2023/07/28 09:18:16;;;;;;;2.97;0.90;;;;;;;20.21;80.55;97984.31;5050144;28;20033;-73
2023/07/28 09:20:42;;;;;;;4.30;1.30;;;;;;;20.33;81.01;97978.16;5042800;28;20036;-75
2023/07/28 09:23:08;;;;;;;3.72;1.50;;;;;;;20.39;80.31;97968.69;5047338;28;20029;-73
2023/07/28 09:25:36;;;;;;;2.15;1.00;;;;;;;20.32;80.38;97973.84;5053745;28;20037;-74
2023/07/28 09:28:02;;;;;;;5.72;1.23;;;;;;;20.47;79.87;97987.59;5044510;28;20029;-74
2023/07/28 09:30:42;;;;;;;2.08;0.93;;;;;;;20.43;79.90;97983.97;5045957;28;20056;-74
2023/07/28 09:33:07;;;;;;;2.15;1.10;;;;;;;20.50;79.57;97981.50;5046599;28;20043;-74
2023/07/28 09:35:33;;;;;;;3.83;1.83;;;;;;;20.55;79.97;97984.00;5050346;28;20033;-74
2023/07/28 09:37:59;;;;;;;3.63;1.30;;;;;;;20.49;79.87;97979.91;5047308;28;20056;-73
2023/07/28 09:40:27;;;;;;;2.33;1.30;;;;;;;20.42;80.12;97995.16;5041853;28;20052;-74
2023/07/28 09:42:54;;;;;;;0.70;0.70;;;;;;;20.34;80.62;97991.38;5042757;28;20037;-74
2023/07/28 09:45:21;;;;;;;3.80;1.50;;;;;;;20.17;81.06;97995.00;5048209;28;20053;-73
2023/07/28 09:47:51;;;;;;;1.98;1.63;;;;;;;20.21;81.12;97995.16;5044792;28;20033;-74
2023/07/28 09:50:21;;;;;;;4.43;1.58;;;;;;;20.19;81.29;97994.66;5042441;28;20186;-73
2023/07/28 09:52:49;;;;;;;1.88;1.17;;;;;;;20.27;81.62;97999.25;5045158;28;20021;-73
2023/07/28 09:55:17;;;;;;;1.77;1.35;;;;;;;20.25;81.81;97982.53;5051769;28;20053;-74
2023/07/28 09:57:49;;;;;;;5.43;1.60;;;;;;;20.38;81.94;97980.69;5048021;28;20024;-73
2023/07/28 10:00:17;;;;;;;2.80;1.55;;;;;;;20.53;80.83;97986.25;5037924;28;20037;-73
2023/07/28 10:02:43;;;;;;;2.88;1.95;;;;;;;20.65;79.70;97989.00;5046577;28;20037;-73
2023/07/28 10:05:10;;;;;;;1.65;1.55;;;;;;;20.79;79.54;97983.28;5042768;28;20396;-74
2023/07/28 10:07:38;;;;;;;4.57;2.05;;;;;;;21.05;78.68;97993.88;5047753;28;20029;-73
2023/07/28 10:10:07;;;;;;;3.05;1.77;;;;;;;21.15;78.11;98001.56;5046543;28;20102;-74
2023/07/28 10:12:41;;;;;;;4.28;1.40;;;;;;;21.28;77.49;97989.59;5037848;28;20042;-74
2023/07/28 10:15:07;;;;;;;1.60;1.50;;;;;;;21.25;77.62;97990.28;5047339;28;20167;-74
2023/07/28 10:17:34;;;;;;;2.72;1.77;;;;;;;21.41;77.35;97991.97;5041834;28;20424;-74
2023/07/28 10:20:09;;;;;;;4.03;2.40;;;;;;;21.58;79.90;97994.47;5041419;28;20063;-74
2023/07/28 10:22:46;;;;;;;2.33;2.13;;;;;;;21.82;76.15;97987.44;5042642;28;20033;-74
2023/07/28 10:25:12;;;;;;;3.50;2.38;;;;;;;21.82;76.07;97995.59;5040860;28;20044;-74
2023/07/28 10:27:43;;;;;;;8.07;2.33;;;;;;;22.03;74.86;97988.88;5032729;28;20029;-74
2023/07/28 10:30:13;;;;;;;4.32;2.22;;;;;;;22.06;74.98;97999.06;5038779;28;20041;-74
2023/07/28 10:32:44;;;;;;;4.18;2.15;;;;;;;22.16;74.97;98000.50;5045149;28;20071;-74
2023/07/28 10:35:23;;;;;;;2.25;2.05;;;;;;;22.15;75.57;97997.00;5049437;28;20171;-74
2023/07/28 10:37:48;;;;;;;3.45;2.30;;;;;;;22.29;74.28;98005.56;5044903;28;20029;-74
2023/07/28 10:40:31;;;;;;;2.25;2.05;;;;;;;22.39;74.81;98002.34;5041518;28;20382;-73
2023/07/28 10:42:58;;;;;;;3.42;2.65;;;;;;;22.59;73.53;98003.31;5039087;28;20082;-75
2023/07/28 10:45:25;;;;;;;5.13;2.55;;;;;;;22.64;73.33;98008.53;5057314;28;20021;-75
2023/07/28 10:47:52;;;;;;;2.63;2.42;;;;;;;22.78;72.73;98008.88;5040011;28;20044;-75
2023/07/28 10:50:18;;;;;;;3.92;2.60;;;;;;;23.07;72.62;98002.25;5043480;28;20028;-74
2023/07/28 10:52:45;;;;;;;3.97;2.45;;;;;;;23.19;71.62;97996.75;5036713;28;20478;-75
2023/07/28 10:55:21;;;;;;;3.65;2.05;;;;;;;23.33;72.89;98005.28;5041379;28;20128;-75
2023/07/28 10:57:48;;;;;;;5.53;2.28;;;;;;;23.38;70.64;98006.94;5042294;28;20075;-74
2023/07/28 11:00:16;;;;;;;3.67;2.00;;;;;;;23.42;70.66;98010.53;5033772;28;20052;-74
2023/07/28 11:02:43;;;;;;;4.15;2.45;;;;;;;23.50;70.25;98004.91;5031421;28;20017;-73
2023/07/28 11:05:14;;;;;;;6.82;3.08;;;;;;;23.54;70.35;98002.28;5027396;28;20033;-74
2023/07/28 11:07:43;;;;;;;4.65;2.47;;;;;;;23.50;70.57;97998.69;5039564;28;20432;-74
2023/07/28 11:10:11;;;;;;;3.20;2.70;;;;;;;23.56;69.30;98000.81;5042666;28;20033;-74
2023/07/28 11:12:40;;;;;;;6.47;3.30;;;;;;;23.52;70.05;98004.59;5032480;28;20044;-73
2023/07/28 11:15:10;;;;;;;3.60;2.40;;;;;;;23.52;69.58;97994.47;5036389;28;20052;-74
2023/07/28 11:17:37;;;;;;;2.85;2.50;;;;;;;23.43;70.49;97999.31;5038697;28;20029;-74
2023/07/28 11:20:03;;;;;;;7.60;2.65;;;;;;;23.36;70.53;98006.50;5038344;28;20025;-73
2023/07/28 11:22:28;;;;;;;3.97;2.63;;;;;;;23.54;69.81;98003.09;5031431;28;20037;-74
2023/07/28 11:24:54;;;;;;;4.63;2.53;;;;;;;23.46;69.98;98006.78;5036349;28;20037;-74
2023/07/28 11:27:19;;;;;;;4.63;3.15;;;;;;;23.42;69.91;97995.00;5031974;28;20086;-73
2023/07/28 11:29:46;;;;;;;3.10;2.42;;;;;;;23.46;70.41;97987.69;5037240;28;20036;-73